createdAt,value
2022-10-09T00:00:51.732Z,101077.23
2022-10-09T00:03:21.962Z,101081.63
2022-10-09T00:05:52.309Z,101082.86
2022-10-09T00:08:22.590Z,101088.64
2022-10-09T00:10:52.994Z,101090.75
2022-10-09T00:13:23.238Z,101091.10
2022-10-09T00:15:53.493Z,101090.24
2022-10-09T00:18:23.683Z,101091.29
2022-10-09T00:20:53.879Z,101090.95
2022-10-09T00:23:24.137Z,101088.84
2022-10-09T00:25:55.818Z,101095.50
2022-10-09T00:28:28.417Z,101100.58
2022-10-09T00:30:58.827Z,101099.19
2022-10-09T00:33:29.130Z,101108.63
2022-10-09T00:35:59.338Z,101106.34
2022-10-09T00:38:30.986Z,101108.10
2022-10-09T00:41:03.562Z,101112.13
2022-10-09T00:43:48.380Z,101115.10
2022-10-09T00:46:28.566Z,101123.14
2022-10-09T00:49:06.490Z,101125.42
2022-10-09T00:51:37.340Z,101121.05
2022-10-09T00:54:12.727Z,101120.53
2022-10-09T00:56:43.543Z,101122.97
2022-10-09T00:59:15.025Z,101118.27
2022-10-09T01:01:45.500Z,101123.16
2022-10-09T01:04:16.021Z,101124.38
2022-10-09T01:07:04.669Z,101126.82
2022-10-09T01:09:42.068Z,101133.46
2022-10-09T01:12:20.617Z,101133.45
2022-10-09T01:14:57.956Z,101138.20
2022-10-09T01:17:34.469Z,101134.86
2022-10-09T01:20:24.097Z,101134.67
2022-10-09T01:23:12.326Z,101143.95
2022-10-09T01:25:54.798Z,101145.00
2022-10-09T01:28:28.921Z,101143.25
2022-10-09T01:31:02.319Z,101147.62
2022-10-09T01:33:34.446Z,101148.48
2022-10-09T01:36:06.113Z,101153.92
2022-10-09T01:38:38.372Z,101153.39
2022-10-09T01:41:10.127Z,101156.34
2022-10-09T01:43:41.317Z,101159.14
2022-10-09T01:46:24.193Z,101162.28
2022-10-09T01:49:02.813Z,101164.90
2022-10-09T01:51:41.053Z,101161.23
2022-10-09T01:54:14.262Z,101163.34
2022-10-09T01:56:48.901Z,101160.35
2022-10-09T01:59:20.770Z,101166.29
2022-10-09T02:01:52.553Z,101167.15
2022-10-09T02:04:23.894Z,101169.41
2022-10-09T02:06:55.262Z,101168.19
2022-10-09T02:09:26.477Z,101165.39
2022-10-09T02:12:03.049Z,101170.27
2022-10-09T02:14:34.622Z,101173.05
2022-10-09T02:17:10.958Z,101173.58
2022-10-09T02:19:45.076Z,101173.05
2022-10-09T02:22:19.407Z,101176.37
2022-10-09T02:24:49.852Z,101176.34
2022-10-09T02:27:22.328Z,101182.80
2022-10-09T02:29:53.518Z,101182.79
2022-10-09T02:32:23.857Z,101185.59
2022-10-09T02:34:54.176Z,101189.42
2022-10-09T02:37:24.458Z,101193.27
2022-10-09T02:39:54.723Z,101195.88
2022-10-09T02:42:25.937Z,101198.30
2022-10-09T02:44:56.174Z,101205.82
2022-10-09T02:47:26.420Z,101209.48
2022-10-09T02:49:57.378Z,101220.31
2022-10-09T02:52:27.743Z,101218.02
2022-10-09T02:54:57.967Z,101221.16
2022-10-09T02:57:28.197Z,101232.50
2022-10-09T02:59:58.393Z,101233.70
2022-10-09T03:02:28.690Z,101230.89
2022-10-09T03:04:59.144Z,101229.82
2022-10-09T03:07:29.362Z,101225.27
2022-10-09T03:09:59.581Z,101223.16
2022-10-09T03:12:29.787Z,101222.09
2022-10-09T03:15:00.039Z,101232.90
2022-10-09T03:17:30.336Z,101234.63
2022-10-09T03:20:00.602Z,101238.11
2022-10-09T03:22:30.916Z,101239.31
2022-10-09T03:25:01.199Z,101238.23
2022-10-09T03:27:31.765Z,101241.35
2022-10-09T03:30:02.025Z,101247.27
2022-10-09T03:32:32.279Z,101248.09
2022-10-09T03:35:02.567Z,101251.92
2022-10-09T03:37:32.835Z,101258.02
2022-10-09T03:40:03.094Z,101263.05
2022-10-09T03:42:33.340Z,101264.06
2022-10-09T03:45:04.843Z,101264.73
2022-10-09T03:47:35.102Z,101270.14
2022-10-09T03:50:05.738Z,101273.27
2022-10-09T03:52:37.194Z,101274.99
2022-10-09T03:55:09.544Z,101270.77
2022-10-09T03:57:39.792Z,101271.79
2022-10-09T04:00:12.702Z,101277.02
2022-10-09T04:02:43.872Z,101280.64
2022-10-09T04:05:14.167Z,101283.75
2022-10-09T04:07:44.747Z,101290.55
2022-10-09T04:10:14.998Z,101293.67
2022-10-09T04:12:45.360Z,101294.73
2022-10-09T04:15:15.754Z,101296.63
2022-10-09T04:17:45.976Z,101298.17
2022-10-09T04:20:16.613Z,101301.98
2022-10-09T04:22:47.157Z,101301.08
2022-10-09T04:25:17.814Z,101298.45
2022-10-09T04:27:48.026Z,101300.88
2022-10-09T04:30:18.461Z,101305.05
2022-10-09T04:32:49.131Z,101303.60
2022-10-09T04:35:19.539Z,101298.64
2022-10-09T04:37:49.766Z,101298.23
2022-10-09T04:40:20.033Z,101300.61
2022-10-09T04:42:50.701Z,101298.70
2022-10-09T04:45:21.080Z,101308.11
2022-10-09T04:47:51.284Z,101307.41
2022-10-09T04:50:21.561Z,101311.59
2022-10-09T04:52:51.979Z,101313.31
2022-10-09T04:55:22.444Z,101311.56
2022-10-09T04:57:52.666Z,101311.91
2022-10-09T05:00:22.949Z,101313.30
2022-10-09T05:02:53.124Z,101316.60
2022-10-09T05:05:23.352Z,101317.47
2022-10-09T05:07:54.600Z,101330.03
2022-10-09T05:10:24.870Z,101330.03
2022-10-09T05:12:55.175Z,101333.17
2022-10-09T05:15:25.744Z,101337.36
2022-10-09T05:17:55.980Z,101338.77
2022-10-09T05:20:26.234Z,101338.05
2022-10-09T05:22:56.507Z,101343.11
2022-10-09T05:25:26.784Z,101344.48
2022-10-09T05:27:57.037Z,101344.82
2022-10-09T05:30:27.307Z,101347.08
2022-10-09T05:32:57.530Z,101347.77
2022-10-09T05:35:27.764Z,101351.43
2022-10-09T05:37:57.973Z,101352.30
2022-10-09T05:40:29.322Z,101351.98
2022-10-09T05:42:59.656Z,101352.70
2022-10-09T05:45:29.950Z,101353.05
2022-10-09T05:48:00.213Z,101355.01
2022-10-09T05:50:30.419Z,101360.10
2022-10-09T05:53:00.663Z,101360.50
2022-10-09T05:55:31.087Z,101364.20
2022-10-09T05:58:01.391Z,101367.54
2022-10-09T06:00:32.251Z,101373.33
2022-10-09T06:03:02.679Z,101376.14
2022-10-09T06:05:32.895Z,101377.23
2022-10-09T06:08:03.155Z,101377.09
2022-10-09T06:10:33.441Z,101382.02
2022-10-09T06:13:03.724Z,101382.91
2022-10-09T06:15:33.962Z,101390.30
2022-10-09T06:18:04.249Z,101391.55
2022-10-09T06:20:34.479Z,101399.46
2022-10-09T06:23:04.711Z,101404.57
2022-10-09T06:25:34.941Z,101409.84
2022-10-09T06:28:05.273Z,101411.63
2022-10-09T06:30:38.726Z,101408.91
2022-10-09T06:33:09.300Z,101406.87
2022-10-09T06:35:39.532Z,101412.87
2022-10-09T06:38:10.123Z,101413.45
2022-10-09T06:40:40.614Z,101422.27
2022-10-09T06:43:10.801Z,101419.88
2022-10-09T06:45:41.207Z,101419.76
2022-10-09T06:48:11.490Z,101424.20
2022-10-09T06:50:41.724Z,101426.20
2022-10-09T06:53:12.011Z,101424.34
2022-10-09T06:55:51.738Z,101424.59
2022-10-09T06:58:21.970Z,101426.41
2022-10-09T07:01:02.514Z,101429.63
2022-10-09T07:03:32.838Z,101435.83
2022-10-09T07:06:11.722Z,101437.27
2022-10-09T07:08:44.251Z,101439.23
2022-10-09T07:11:16.814Z,101442.08
2022-10-09T07:13:48.764Z,101448.92
2022-10-09T07:16:24.528Z,101453.85
2022-10-09T07:18:55.095Z,101456.16
2022-10-09T07:21:26.771Z,101447.80
2022-10-09T07:23:57.080Z,101449.74
2022-10-09T07:26:29.465Z,101443.65
2022-10-09T07:29:00.115Z,101448.21
2022-10-09T07:31:30.435Z,101450.16
2022-10-09T07:34:01.603Z,101454.39
2022-10-09T07:36:31.829Z,101455.80
2022-10-09T07:39:02.468Z,101456.52
2022-10-09T07:41:33.026Z,101458.31
2022-10-09T07:44:03.562Z,101461.47
2022-10-09T07:46:34.451Z,101460.78
2022-10-09T07:49:05.331Z,101463.61
2022-10-09T07:51:35.661Z,101467.98
2022-10-09T07:54:06.069Z,101466.59
2022-10-09T07:56:38.495Z,101469.39
2022-10-09T07:59:12.982Z,101472.90
2022-10-09T08:01:43.602Z,101469.23
2022-10-09T08:04:13.843Z,101467.83
2022-10-09T08:06:44.093Z,101471.67
2022-10-09T08:09:14.348Z,101472.38
2022-10-09T08:11:44.586Z,101468.88
2022-10-09T08:14:19.223Z,101468.86
2022-10-09T08:16:49.967Z,101469.73
2022-10-09T08:19:20.201Z,101468.66
2022-10-09T08:21:50.575Z,101471.98
2022-10-09T08:24:20.838Z,101473.56
2022-10-09T08:26:51.123Z,101472.83
2022-10-09T08:29:23.811Z,101471.42
2022-10-09T08:31:54.423Z,101472.29
2022-10-09T08:34:24.673Z,101472.44
2022-10-09T08:36:54.935Z,101471.54
2022-10-09T08:39:25.186Z,101475.04
2022-10-09T08:41:57.693Z,101475.02
2022-10-09T08:44:30.360Z,101479.20
2022-10-09T08:47:08.464Z,101476.75
2022-10-09T08:49:45.994Z,101475.70
2022-10-09T08:52:26.590Z,101473.92
2022-10-09T08:55:00.308Z,101476.70
2022-10-09T08:57:34.183Z,101481.94
2022-10-09T09:00:07.474Z,101481.04
2022-10-09T09:02:54.416Z,101477.16
2022-10-09T09:05:36.678Z,101475.22
2022-10-09T09:08:16.993Z,101478.38
2022-10-09T09:10:56.254Z,101479.39
2022-10-09T09:13:41.825Z,101476.91
2022-10-09T09:16:19.097Z,101476.71
2022-10-09T09:19:10.259Z,101477.91
2022-10-09T09:21:48.536Z,101480.52
2022-10-09T09:24:21.750Z,101478.20
2022-10-09T09:26:56.592Z,101475.55
2022-10-09T09:29:27.940Z,101477.96
2022-10-09T09:32:02.130Z,101471.11
2022-10-09T09:34:38.313Z,101472.86
2022-10-09T09:37:11.058Z,101471.77
2022-10-09T09:40:31.339Z,101474.01
2022-10-09T09:42:32.123Z,101469.73
2022-10-09T09:45:09.502Z,101469.55
2022-10-09T09:47:44.233Z,101470.63
2022-10-09T09:50:35.198Z,101470.95
2022-10-09T09:53:24.294Z,101468.84
2022-10-09T09:55:55.868Z,101463.47
2022-10-09T09:58:33.800Z,101468.48
2022-10-09T10:01:06.500Z,101469.13
2022-10-09T10:03:37.384Z,101467.31
2022-10-09T10:06:23.724Z,101467.24
2022-10-09T10:09:05.957Z,101467.20
2022-10-09T10:11:38.836Z,101464.86
2022-10-09T10:14:10.022Z,101460.91
2022-10-09T10:16:41.127Z,101459.81
2022-10-09T10:19:24.292Z,101458.00
2022-10-09T10:22:01.357Z,101457.23
2022-10-09T10:24:36.930Z,101458.22
2022-10-09T10:27:14.967Z,101456.05
2022-10-09T10:29:48.120Z,101459.15
2022-10-09T10:32:23.493Z,101455.27
2022-10-09T10:34:59.189Z,101459.31
2022-10-09T10:37:38.675Z,101463.29
2022-10-09T10:40:18.024Z,101461.95
2022-10-09T10:43:00.675Z,101456.54
2022-10-09T10:45:36.004Z,101456.91
2022-10-09T10:48:10.521Z,101456.16
2022-10-09T10:50:47.723Z,101459.77
2022-10-09T10:53:30.963Z,101457.79
2022-10-09T10:56:06.818Z,101453.14
2022-10-09T10:58:47.094Z,101450.23
2022-10-09T11:01:30.336Z,101450.98
2022-10-09T11:04:22.828Z,101453.35
2022-10-09T11:07:04.152Z,101448.13
2022-10-09T11:09:44.501Z,101448.85
2022-10-09T11:12:43.346Z,101447.81
2022-10-09T11:15:22.265Z,101441.50
2022-10-09T11:18:01.658Z,101443.30
2022-10-09T11:20:53.207Z,101447.08
2022-10-09T11:23:34.007Z,101443.73
2022-10-09T11:26:14.978Z,101442.64
2022-10-09T11:28:51.617Z,101442.09
2022-10-09T11:31:29.625Z,101437.60
2022-10-09T11:34:05.355Z,101437.65
2022-10-09T11:36:40.576Z,101438.44
2022-10-09T11:39:17.997Z,101439.27
2022-10-09T11:41:51.531Z,101436.21
2022-10-09T11:44:42.835Z,101432.92
2022-10-09T11:47:21.147Z,101430.89
2022-10-09T11:50:12.547Z,101427.39
2022-10-09T11:52:48.587Z,101426.27
2022-10-09T11:55:24.996Z,101428.88
2022-10-09T11:57:55.326Z,101427.53
2022-10-09T12:00:37.212Z,101420.40
2022-10-09T12:03:08.611Z,101411.48
2022-10-09T12:05:43.170Z,101405.75
2022-10-09T12:08:19.228Z,101401.01
2022-10-09T12:10:54.317Z,101401.77
2022-10-09T12:13:47.488Z,101395.63
2022-10-09T12:16:40.619Z,101389.92
2022-10-09T12:19:24.358Z,101392.53
2022-10-09T12:22:00.759Z,101388.13
2022-10-09T12:24:38.524Z,101384.67
2022-10-09T12:27:09.874Z,101383.52
2022-10-09T12:29:45.524Z,101386.20
2022-10-09T12:32:20.042Z,101383.77
2022-10-09T12:34:52.109Z,101379.21
2022-10-09T12:37:31.798Z,101377.83
2022-10-09T12:40:14.635Z,101370.04
2022-10-09T12:42:45.744Z,101369.62
2022-10-09T12:45:22.280Z,101371.63
2022-10-09T12:47:53.729Z,101366.33
2022-10-09T12:50:27.868Z,101360.70
2022-10-09T12:53:00.572Z,101357.36
2022-10-09T12:55:33.439Z,101358.02
2022-10-09T12:58:07.857Z,101355.23
2022-10-09T13:00:38.521Z,101356.54
2022-10-09T13:03:23.164Z,101354.30
2022-10-09T13:05:54.227Z,101352.16
2022-10-09T13:08:29.224Z,101350.85
2022-10-09T13:11:11.089Z,101352.46
2022-10-09T13:13:41.908Z,101350.10
2022-10-09T13:16:12.221Z,101347.42
2022-10-09T13:18:42.464Z,101349.63
2022-10-09T13:21:28.985Z,101343.19
2022-10-09T13:24:12.015Z,101346.45
2022-10-09T13:26:44.673Z,101339.94
2022-10-09T13:29:15.929Z,101337.20
2022-10-09T13:31:47.474Z,101337.73
2022-10-09T13:34:18.926Z,101336.63
2022-10-09T13:36:49.146Z,101335.55
2022-10-09T13:39:19.497Z,101336.17
2022-10-09T13:41:52.875Z,101330.16
2022-10-09T13:44:23.077Z,101329.06
2022-10-09T13:46:53.453Z,101328.16
2022-10-09T13:49:23.975Z,101327.23
2022-10-09T13:51:54.253Z,101324.89
2022-10-09T13:54:25.085Z,101320.53
2022-10-09T13:56:55.540Z,101319.60
2022-10-09T13:59:27.369Z,101321.44
2022-10-09T14:01:57.867Z,101320.70
2022-10-09T14:04:29.273Z,101313.56
2022-10-09T14:06:59.532Z,101314.56
2022-10-09T14:09:29.906Z,101315.35
2022-10-09T14:12:00.226Z,101318.83
2022-10-09T14:14:30.605Z,101316.91
2022-10-09T14:17:00.844Z,101315.61
2022-10-09T14:19:31.066Z,101314.80
2022-10-09T14:22:01.461Z,101314.06
2022-10-09T14:24:31.695Z,101306.46
2022-10-09T14:27:02.379Z,101308.39
2022-10-09T14:29:32.617Z,101306.27
2022-10-09T14:32:02.861Z,101307.21
2022-10-09T14:34:33.297Z,101304.38
2022-10-09T14:37:13.603Z,101302.38
2022-10-09T14:39:49.378Z,101301.63
2022-10-09T14:42:19.596Z,101303.20
2022-10-09T14:44:49.842Z,101298.24
2022-10-09T14:47:20.089Z,101296.09
2022-10-09T14:49:50.630Z,101291.84
2022-10-09T14:52:20.883Z,101291.11
2022-10-09T14:54:51.122Z,101289.11
2022-10-09T14:57:21.950Z,101285.72
2022-10-09T14:59:52.228Z,101285.38
2022-10-09T15:02:22.506Z,101282.36
2022-10-09T15:04:53.037Z,101282.31
2022-10-09T15:07:23.253Z,101283.63
2022-10-09T15:09:54.820Z,101282.91
2022-10-09T15:12:25.327Z,101281.37
2022-10-09T15:14:55.627Z,101282.46
2022-10-09T15:17:25.903Z,101284.36
2022-10-09T15:19:56.108Z,101276.00
2022-10-09T15:22:26.342Z,101276.98
2022-10-09T15:24:56.698Z,101274.46
2022-10-09T15:27:27.040Z,101271.96
2022-10-09T15:29:57.297Z,101271.71
2022-10-09T15:32:27.821Z,101272.48
2022-10-09T15:34:58.107Z,101269.58
2022-10-09T15:37:28.330Z,101273.44
2022-10-09T15:39:58.577Z,101266.54
2022-10-09T15:42:28.841Z,101269.09
2022-10-09T15:44:59.098Z,101270.27
2022-10-09T15:47:49.981Z,101273.04
2022-10-09T15:50:19.689Z,101272.46
2022-10-09T15:52:50.052Z,101269.35
2022-10-09T15:55:20.520Z,101270.02
2022-10-09T15:57:50.713Z,101269.59
2022-10-09T16:00:20.897Z,101270.30
2022-10-09T16:02:51.406Z,101266.81
2022-10-09T16:05:21.943Z,101271.73
2022-10-09T16:07:52.185Z,101270.32
2022-10-09T16:10:22.650Z,101264.31
2022-10-09T16:12:53.028Z,101260.87
2022-10-09T16:15:23.970Z,101268.84
2022-10-09T16:17:54.370Z,101271.63
2022-10-09T16:20:25.160Z,101275.58
2022-10-09T16:22:55.380Z,101279.55
2022-10-09T16:25:25.708Z,101284.22
2022-10-09T16:27:56.786Z,101288.33
2022-10-09T16:30:27.580Z,101290.71
2022-10-09T16:32:58.029Z,101292.92
2022-10-09T16:35:28.615Z,101293.20
2022-10-09T16:37:58.882Z,101297.84
2022-10-09T16:40:49.885Z,101299.31
2022-10-09T16:43:20.203Z,101303.25
2022-10-09T16:45:50.463Z,101299.98
2022-10-09T16:48:20.711Z,101298.44
2022-10-09T16:50:50.938Z,101301.82
2022-10-09T16:53:21.186Z,101297.66
2022-10-09T16:55:51.409Z,101301.21
2022-10-09T16:58:22.015Z,101296.87
2022-10-09T17:00:52.332Z,101295.02
2022-10-09T17:03:22.593Z,101295.62
2022-10-09T17:05:52.807Z,101300.42
2022-10-09T17:08:23.187Z,101302.58
2022-10-09T17:10:53.428Z,101303.13
2022-10-09T17:13:24.329Z,101304.38
2022-10-09T17:15:57.037Z,101303.86
2022-10-09T17:18:28.652Z,101305.28
2022-10-09T17:21:01.396Z,101305.48
2022-10-09T17:23:32.119Z,101301.30
2022-10-09T17:26:07.478Z,101298.34
2022-10-09T17:28:38.550Z,101304.29
2022-10-09T17:31:14.414Z,101302.39
2022-10-09T17:33:46.182Z,101299.23
2022-10-09T17:36:19.153Z,101303.63
2022-10-09T17:38:51.040Z,101307.52
2022-10-09T17:41:23.547Z,101306.64
2022-10-09T17:43:55.814Z,101307.35
2022-10-09T17:46:27.583Z,101309.82
2022-10-09T17:48:58.431Z,101303.16
2022-10-09T17:51:30.881Z,101301.95
2022-10-09T17:54:06.983Z,101305.10
2022-10-09T17:56:40.226Z,101306.52
2022-10-09T17:59:11.129Z,101307.73
2022-10-09T18:01:41.854Z,101313.35
2022-10-09T18:04:16.444Z,101314.75
2022-10-09T18:06:46.878Z,101314.39
2022-10-09T18:09:17.153Z,101314.20
2022-10-09T18:11:47.507Z,101314.55
2022-10-09T18:14:19.947Z,101308.24
2022-10-09T18:16:50.189Z,101309.12
2022-10-09T18:19:21.444Z,101314.36
2022-10-09T18:21:52.211Z,101308.76
2022-10-09T18:24:25.246Z,101307.71
2022-10-09T18:26:55.763Z,101313.13
2022-10-09T18:29:26.043Z,101309.11
2022-10-09T18:31:56.404Z,101314.02
2022-10-09T18:34:26.747Z,101311.38
2022-10-09T18:36:58.517Z,101311.73
2022-10-09T18:39:29.229Z,101311.91
2022-10-09T18:42:02.054Z,101313.13
2022-10-09T18:44:35.599Z,101314.35
2022-10-09T18:47:11.729Z,101314.69
2022-10-09T18:49:44.725Z,101314.68
2022-10-09T18:52:16.131Z,101312.75
2022-10-09T18:54:49.967Z,101313.64
2022-10-09T18:57:28.910Z,101315.04
2022-10-09T19:00:01.170Z,101306.97
2022-10-09T19:02:31.858Z,101308.00
2022-10-09T19:05:02.161Z,101309.76
2022-10-09T19:07:32.439Z,101311.66
2022-10-09T19:10:03.483Z,101309.56
2022-10-09T19:12:33.726Z,101306.92
2022-10-09T19:15:09.638Z,101309.89
2022-10-09T19:17:43.876Z,101309.88
2022-10-09T19:20:17.559Z,101308.11
2022-10-09T19:22:48.690Z,101310.73
2022-10-09T19:25:20.271Z,101310.55
2022-10-09T19:27:51.145Z,101312.64
2022-10-09T19:30:21.718Z,101316.98
2022-10-09T19:32:55.795Z,101314.71
2022-10-09T19:35:27.098Z,101319.75
2022-10-09T19:37:57.408Z,101317.13
2022-10-09T19:40:27.761Z,101319.03
2022-10-09T19:42:57.971Z,101315.01
2022-10-09T19:45:29.209Z,101315.86
2022-10-09T19:48:00.260Z,101314.80
2022-10-09T19:50:31.258Z,101316.35
2022-10-09T19:53:03.215Z,101312.67
2022-10-09T19:55:36.120Z,101312.30
2022-10-09T19:58:06.744Z,101305.47
2022-10-09T20:00:41.701Z,101303.00
2022-10-09T20:03:19.674Z,101308.23
2022-10-09T20:05:49.950Z,101308.73
2022-10-09T20:08:20.175Z,101308.55
2022-10-09T20:10:52.693Z,101305.39
2022-10-09T20:13:22.897Z,101306.23
2022-10-09T20:15:55.185Z,101309.14
2022-10-09T20:18:25.418Z,101308.40
2022-10-09T20:20:56.243Z,101315.19
2022-10-09T20:23:26.547Z,101317.09
2022-10-09T20:26:08.098Z,101312.70
2022-10-09T20:28:39.671Z,101312.86
2022-10-09T20:31:14.581Z,101314.94
2022-10-09T20:33:50.882Z,101312.46
2022-10-09T20:36:27.615Z,101310.36
2022-10-09T20:38:59.205Z,101306.85
2022-10-09T20:41:32.699Z,101307.90
2022-10-09T20:44:04.547Z,101303.54
2022-10-09T20:46:37.411Z,101303.54
2022-10-09T20:49:11.267Z,101301.77
2022-10-09T20:51:42.075Z,101304.36
2022-10-09T20:54:17.951Z,101301.04
2022-10-09T20:56:50.873Z,101301.20
2022-10-09T20:59:21.121Z,101299.77
2022-10-09T21:01:51.803Z,101298.54
2022-10-09T21:04:22.034Z,101294.86
2022-10-09T21:06:52.285Z,101290.51
2022-10-09T21:09:22.545Z,101292.60
2022-10-09T21:11:52.814Z,101292.25
2022-10-09T21:14:23.046Z,101290.15
2022-10-09T21:16:53.263Z,101294.16
2022-10-09T21:19:23.579Z,101287.34
2022-10-09T21:21:54.016Z,101283.66
2022-10-09T21:24:24.285Z,101275.96
2022-10-09T21:26:54.511Z,101272.14
2022-10-09T21:29:24.812Z,101276.66
2022-10-09T21:31:55.021Z,101276.10
2022-10-09T21:34:25.293Z,101275.59
2022-10-09T21:37:19.703Z,101274.54
2022-10-09T21:39:47.618Z,101275.73
2022-10-09T21:42:17.936Z,101273.80
2022-10-09T21:44:48.214Z,101271.01
2022-10-09T21:47:19.787Z,101270.30
2022-10-09T21:49:50.051Z,101267.68
2022-10-09T21:52:20.340Z,101265.54
2022-10-09T21:54:50.622Z,101264.82
2022-10-09T21:57:20.912Z,101262.36
2022-10-09T21:59:51.198Z,101267.58
2022-10-09T22:02:21.440Z,101265.64
2022-10-09T22:04:52.584Z,101264.20
2022-10-09T22:07:22.819Z,101257.23
2022-10-09T22:09:53.810Z,101260.33
2022-10-09T22:12:26.493Z,101257.34
2022-10-09T22:14:58.101Z,101256.98
2022-10-09T22:17:28.352Z,101257.48
2022-10-09T22:19:58.583Z,101256.59
2022-10-09T22:22:28.834Z,101256.90
2022-10-09T22:24:59.751Z,101255.32
2022-10-09T22:27:29.988Z,101254.77
2022-10-09T22:30:00.289Z,101254.22
2022-10-09T22:32:30.523Z,101251.92
2022-10-09T22:35:00.748Z,101254.86
2022-10-09T22:37:31.015Z,101253.80
2022-10-09T22:40:01.319Z,101247.85
2022-10-09T22:42:31.541Z,101249.77
2022-10-09T22:45:06.434Z,101248.35
2022-10-09T22:47:36.720Z,101249.55
2022-10-09T22:50:07.523Z,101251.44
2022-10-09T22:52:37.744Z,101243.41
2022-10-09T22:55:09.734Z,101242.70
2022-10-09T22:57:39.955Z,101237.96
2022-10-09T23:00:12.183Z,101239.71
2022-10-09T23:02:42.402Z,101237.42
2022-10-09T23:05:13.155Z,101233.73
2022-10-09T23:07:45.795Z,101229.71
2022-10-09T23:10:16.299Z,101227.61
2022-10-09T23:12:48.393Z,101221.86
2022-10-09T23:15:19.220Z,101221.66
2022-10-09T23:17:49.485Z,101221.79
2022-10-09T23:20:19.761Z,101222.44
2022-10-09T23:22:50.201Z,101221.73
2022-10-09T23:25:20.585Z,101218.58
2022-10-09T23:27:50.911Z,101219.22
2022-10-09T23:30:21.249Z,101223.54
2022-10-09T23:32:53.935Z,101220.20
2022-10-09T23:35:24.167Z,101221.73
2022-10-09T23:37:56.364Z,101216.29
2022-10-09T23:40:26.588Z,101220.98
2022-10-09T23:42:56.820Z,101226.00
2022-10-09T23:45:27.043Z,101224.59
2022-10-09T23:47:57.264Z,101223.52
2022-10-09T23:50:27.500Z,101220.36
2022-10-09T23:52:57.724Z,101217.37
2022-10-09T23:55:27.946Z,101216.31
2022-10-09T23:57:58.167Z,101215.08
